sensor_id;sensor_type;location;lat;lon;timestamp;pressure;altitude;pressure_sealevel;temperature;humidity
33506;BME280;19843;51.040;13.782;2023-02-13T00:00:46;102508.59;;;7.00;100.00
33506;BME280;19843;51.040;13.782;2023-02-13T00:03:15;102515.28;;;7.21;100.00
33506;BME280;19843;51.040;13.782;2023-02-13T00:05:42;102507.38;;;7.18;100.00
33506;BME280;19843;51.040;13.782;2023-02-13T00:08:10;102509.38;;;7.05;100.00
33506;BME280;19843;51.040;13.782;2023-02-13T00:10:37;102511.19;;;7.03;100.00
33506;BME280;19843;51.040;13.782;2023-02-13T00:13:05;102509.38;;;7.05;100.00
33506;BME280;19843;51.040;13.782;2023-02-13T00:15:32;102510.13;;;7.11;100.00
33506;BME280;19843;51.040;13.782;2023-02-13T00:18:01;102502.31;;;7.02;100.00
33506;BME280;19843;51.040;13.782;2023-02-13T00:20:30;102508.63;;;6.97;100.00
33506;BME280;19843;51.040;13.782;2023-02-13T00:22:57;102497.22;;;6.88;100.00
33506;BME280;19843;51.040;13.782;2023-02-13T00:25:25;102492.75;;;6.90;100.00
33506;BME280;19843;51.040;13.782;2023-02-13T00:27:53;102494.59;;;6.87;100.00
33506;BME280;19843;51.040;13.782;2023-02-13T00:30:21;102487.47;;;6.87;100.00
33506;BME280;19843;51.040;13.782;2023-02-13T00:32:48;102500.94;;;6.81;100.00
33506;BME280;19843;51.040;13.782;2023-02-13T00:35:16;102489.25;;;6.87;100.00
33506;BME280;19843;51.040;13.782;2023-02-13T00:37:45;102489.00;;;7.01;100.00
33506;BME280;19843;51.040;13.782;2023-02-13T00:40:13;102491.94;;;6.85;100.00
33506;BME280;19843;51.040;13.782;2023-02-13T00:42:40;102491.13;;;6.82;100.00
33506;BME280;19843;51.040;13.782;2023-02-13T00:45:08;102501.56;;;6.93;100.00
33506;BME280;19843;51.040;13.782;2023-02-13T00:47:35;102492.00;;;6.84;100.00
33506;BME280;19843;51.040;13.782;2023-02-13T00:50:03;102491.16;;;6.79;100.00
33506;BME280;19843;51.040;13.782;2023-02-13T00:52:31;102499.13;;;6.82;100.00
33506;BME280;19843;51.040;13.782;2023-02-13T00:55:00;102495.59;;;6.80;100.00
33506;BME280;19843;51.040;13.782;2023-02-13T00:57:27;102497.00;;;6.99;100.00
33506;BME280;19843;51.040;13.782;2023-02-13T00:59:57;102490.25;;;6.81;100.00
33506;BME280;19843;51.040;13.782;2023-02-13T01:02:24;102493.97;;;6.71;100.00
33506;BME280;19843;51.040;13.782;2023-02-13T01:04:52;102498.91;;;6.94;100.00
33506;BME280;19843;51.040;13.782;2023-02-13T01:07:19;102497.41;;;6.78;100.00
33506;BME280;19843;51.040;13.782;2023-02-13T01:09:46;102501.13;;;6.69;100.00
33506;BME280;19843;51.040;13.782;2023-02-13T01:12:15;102499.38;;;6.68;100.00
33506;BME280;19843;51.040;13.782;2023-02-13T01:14:43;102505.50;;;6.72;100.00
33506;BME280;19843;51.040;13.782;2023-02-13T01:17:10;102497.25;;;6.87;100.00
33506;BME280;19843;51.040;13.782;2023-02-13T01:19:39;102501.56;;;6.94;100.00
33506;BME280;19843;51.040;13.782;2023-02-13T01:22:07;102497.09;;;6.95;100.00
33506;BME280;19843;51.040;13.782;2023-02-13T01:24:34;102492.78;;;6.87;100.00
33506;BME280;19843;51.040;13.782;2023-02-13T01:27:01;102494.41;;;6.98;100.00
33506;BME280;19843;51.040;13.782;2023-02-13T01:29:31;102490.13;;;6.87;100.00
33506;BME280;19843;51.040;13.782;2023-02-13T01:31:58;102496.22;;;6.96;100.00
33506;BME280;19843;51.040;13.782;2023-02-13T01:34:27;102491.00;;;6.88;100.00
33506;BME280;19843;51.040;13.782;2023-02-13T01:36:55;102494.66;;;6.82;100.00
33506;BME280;19843;51.040;13.782;2023-02-13T01:39:22;102488.53;;;6.77;100.00
33506;BME280;19843;51.040;13.782;2023-02-13T01:41:50;102490.28;;;6.78;100.00
33506;BME280;19843;51.040;13.782;2023-02-13T01:44:47;102485.72;;;6.86;100.00
33506;BME280;19843;51.040;13.782;2023-02-13T01:47:21;102476.94;;;6.81;100.00
33506;BME280;19843;51.040;13.782;2023-02-13T01:49:55;102475.25;;;6.74;100.00
33506;BME280;19843;51.040;13.782;2023-02-13T01:52:25;102477.03;;;6.75;100.00
33506;BME280;19843;51.040;13.782;2023-02-13T01:54:53;102477.75;;;6.83;100.00
33506;BME280;19843;51.040;13.782;2023-02-13T01:57:22;102474.13;;;6.87;100.00
33506;BME280;19843;51.040;13.782;2023-02-13T01:59:56;102479.59;;;6.81;100.00
33506;BME280;19843;51.040;13.782;2023-02-13T02:02:28;102479.66;;;6.77;100.00
33506;BME280;19843;51.040;13.782;2023-02-13T02:04:57;102476.00;;;6.82;100.00
33506;BME280;19843;51.040;13.782;2023-02-13T02:07:26;102480.25;;;6.93;100.00
33506;BME280;19843;51.040;13.782;2023-02-13T02:09:58;102480.91;;;7.04;100.00
33506;BME280;19843;51.040;13.782;2023-02-13T02:12:32;102472.41;;;6.85;100.00
33506;BME280;19843;51.040;13.782;2023-02-13T02:15:04;102474.22;;;6.83;100.00
33506;BME280;19843;51.040;13.782;2023-02-13T02:17:32;102469.75;;;6.83;100.00
33506;BME280;19843;51.040;13.782;2023-02-13T02:20:09;102473.41;;;6.78;100.00
33506;BME280;19843;51.040;13.782;2023-02-13T02:25:57;102456.56;;;6.76;100.00
33506;BME280;19843;51.040;13.782;2023-02-13T02:28:49;102460.16;;;6.73;100.00
33506;BME280;19843;51.040;13.782;2023-02-13T02:31:46;102465.50;;;6.73;100.00
33506;BME280;19843;51.040;13.782;2023-02-13T02:34:23;102461.97;;;6.73;100.00
33506;BME280;19843;51.040;13.782;2023-02-13T02:37:04;102464.56;;;6.76;100.00
33506;BME280;19843;51.040;13.782;2023-02-13T02:39:47;102468.19;;;6.73;100.00
33506;BME280;19843;51.040;13.782;2023-02-13T02:42:27;102472.31;;;6.88;100.00
33506;BME280;19843;51.040;13.782;2023-02-13T02:44:59;102474.09;;;6.90;100.00
33506;BME280;19843;51.040;13.782;2023-02-13T02:47:40;102470.59;;;6.85;100.00
33506;BME280;19843;51.040;13.782;2023-02-13T02:50:40;102469.03;;;6.75;100.00
33506;BME280;19843;51.040;13.782;2023-02-13T02:53:24;102472.47;;;6.80;100.00
33506;BME280;19843;51.040;13.782;2023-02-13T02:55:55;102473.16;;;6.93;100.00
33506;BME280;19843;51.040;13.782;2023-02-13T02:58:30;102468.09;;;6.78;100.00
33506;BME280;19843;51.040;13.782;2023-02-13T03:01:19;102473.16;;;6.92;100.00
33506;BME280;19843;51.040;13.782;2023-02-13T03:04:11;102476.94;;;6.81;100.00
33506;BME280;19843;51.040;13.782;2023-02-13T03:07:02;102469.91;;;6.74;100.00
33506;BME280;19843;51.040;13.782;2023-02-13T03:09:36;102476.06;;;6.79;100.00
33506;BME280;19843;51.040;13.782;2023-02-13T03:12:28;102471.78;;;6.69;100.00
33506;BME280;19843;51.040;13.782;2023-02-13T03:15:13;102480.66;;;6.71;100.00
33506;BME280;19843;51.040;13.782;2023-02-13T03:17:41;102481.59;;;6.67;100.00
33506;BME280;19843;51.040;13.782;2023-02-13T03:20:36;102475.41;;;6.66;100.00
33506;BME280;19843;51.040;13.782;2023-02-13T03:23:34;102468.34;;;6.62;100.00
33506;BME280;19843;51.040;13.782;2023-02-13T03:26:18;102476.94;;;6.81;100.00
33506;BME280;19843;51.040;13.782;2023-02-13T03:28:52;102478.66;;;6.82;100.00
33506;BME280;19843;51.040;13.782;2023-02-13T03:31:47;102478.84;;;6.73;100.00
33506;BME280;19843;51.040;13.782;2023-02-13T03:34:20;102477.03;;;6.75;100.00
33506;BME280;19843;51.040;13.782;2023-02-13T03:36:58;102479.78;;;6.69;100.00
33506;BME280;19843;51.040;13.782;2023-02-13T03:39:55;102484.28;;;6.67;100.00
33506;BME280;19843;51.040;13.782;2023-02-13T03:42:31;102478.94;;;6.67;100.00
33506;BME280;19843;51.040;13.782;2023-02-13T03:45:04;102477.97;;;6.71;100.00
33506;BME280;19843;51.040;13.782;2023-02-13T03:47:51;102473.56;;;6.70;100.00
33506;BME280;19843;51.040;13.782;2023-02-13T03:50:20;102483.06;;;6.85;100.00
33506;BME280;19843;51.040;13.782;2023-02-13T03:52:51;102477.06;;;6.72;100.00
33506;BME280;19843;51.040;13.782;2023-02-13T03:55:21;102478.75;;;6.78;100.00
33506;BME280;19843;51.040;13.782;2023-02-13T03:58:10;102477.91;;;6.74;100.00
33506;BME280;19843;51.040;13.782;2023-02-13T04:00:59;102485.03;;;6.74;100.00
33506;BME280;19843;51.040;13.782;2023-02-13T04:03:34;102475.00;;;6.88;100.00
33506;BME280;19843;51.040;13.782;2023-02-13T04:06:08;102479.53;;;6.84;100.00
33506;BME280;19843;51.040;13.782;2023-02-13T04:08:38;102475.22;;;6.77;100.00
33506;BME280;19843;51.040;13.782;2023-02-13T04:11:09;102479.63;;;6.78;100.00
33506;BME280;19843;51.040;13.782;2023-02-13T04:13:42;102478.84;;;6.73;100.00
33506;BME280;19843;51.040;13.782;2023-02-13T04:16:16;102484.75;;;6.90;100.00
33506;BME280;19843;51.040;13.782;2023-02-13T04:18:47;102480.47;;;6.82;100.00
33506;BME280;19843;51.040;13.782;2023-02-13T04:21:15;102482.28;;;6.80;100.00
33506;BME280;19843;51.040;13.782;2023-02-13T04:23:44;102482.25;;;6.81;100.00
33506;BME280;19843;51.040;13.782;2023-02-13T04:26:15;102479.53;;;6.84;100.00
33506;BME280;19843;51.040;13.782;2023-02-13T04:28:43;102476.06;;;6.79;100.00
33506;BME280;19843;51.040;13.782;2023-02-13T04:31:11;102476.00;;;6.82;100.00
33506;BME280;19843;51.040;13.782;2023-02-13T04:33:39;102478.56;;;6.88;100.00
33506;BME280;19843;51.040;13.782;2023-02-13T04:36:10;102477.66;;;6.88;100.00
33506;BME280;19843;51.040;13.782;2023-02-13T04:38:37;102477.66;;;6.89;100.00
33506;BME280;19843;51.040;13.782;2023-02-13T04:41:06;102474.88;;;6.96;100.00
33506;BME280;19843;51.040;13.782;2023-02-13T04:43:34;102475.72;;;6.98;100.00
33506;BME280;19843;51.040;13.782;2023-02-13T04:46:01;102473.06;;;6.96;100.00
33506;BME280;19843;51.040;13.782;2023-02-13T04:48:29;102479.41;;;6.90;100.00
33506;BME280;19843;51.040;13.782;2023-02-13T04:50:57;102481.19;;;6.90;100.00
33506;BME280;19843;51.040;13.782;2023-02-13T04:53:24;102480.19;;;6.97;100.00
33506;BME280;19843;51.040;13.782;2023-02-13T04:55:52;102478.50;;;6.92;100.00
33506;BME280;19843;51.040;13.782;2023-02-13T04:58:21;102475.81;;;6.92;100.00
33506;BME280;19843;51.040;13.782;2023-02-13T05:00:48;102475.84;;;6.90;100.00
33506;BME280;19843;51.040;13.782;2023-02-13T05:03:16;102472.47;;;6.80;100.00
33506;BME280;19843;51.040;13.782;2023-02-13T05:05:43;102475.81;;;6.92;100.00
33506;BME280;19843;51.040;13.782;2023-02-13T05:08:10;102470.75;;;6.78;100.00
33506;BME280;19843;51.040;13.782;2023-02-13T05:10:38;102475.94;;;6.85;100.00
33506;BME280;19843;51.040;13.782;2023-02-13T05:13:05;102471.59;;;6.81;100.00
33506;BME280;19843;51.040;13.782;2023-02-13T05:15:34;102472.41;;;6.83;100.00
33506;BME280;19843;51.040;13.782;2023-02-13T05:18:02;102469.81;;;6.80;100.00
33506;BME280;19843;51.040;13.782;2023-02-13T05:20:29;102474.97;;;6.91;100.00
33506;BME280;19843;51.040;13.782;2023-02-13T05:22:58;102481.22;;;6.88;100.00
33506;BME280;19843;51.040;13.782;2023-02-13T05:25:43;102474.97;;;6.89;100.00
33506;BME280;19843;51.040;13.782;2023-02-13T05:28:10;102485.81;;;6.82;100.00
33506;BME280;19843;51.040;13.782;2023-02-13T05:30:53;102475.22;;;6.77;100.00
33506;BME280;19843;51.040;13.782;2023-02-13T05:33:20;102482.03;;;6.94;100.00
33506;BME280;19843;51.040;13.782;2023-02-13T05:35:48;102480.41;;;6.85;100.00
33506;BME280;19843;51.040;13.782;2023-02-13T05:38:15;102484.69;;;6.92;100.00
33506;BME280;19843;51.040;13.782;2023-02-13T05:40:43;102476.69;;;6.94;100.00
33506;BME280;19843;51.040;13.782;2023-02-13T05:43:10;102471.47;;;6.87;100.00
33506;BME280;19843;51.040;13.782;2023-02-13T05:45:38;102484.75;;;6.90;100.00
33506;BME280;19843;51.040;13.782;2023-02-13T05:48:06;102468.69;;;6.94;100.00
33506;BME280;19843;51.040;13.782;2023-02-13T05:50:34;102477.84;;;6.79;100.00
33506;BME280;19843;51.040;13.782;2023-02-13T05:53:01;102474.19;;;6.84;100.00
33506;BME280;19843;51.040;13.782;2023-02-13T05:55:29;102476.09;;;6.76;100.00
33506;BME280;19843;51.040;13.782;2023-02-13T05:57:57;102478.81;;;6.75;100.00
33506;BME280;19843;51.040;13.782;2023-02-13T06:00:24;102473.66;;;6.64;100.00
33506;BME280;19843;51.040;13.782;2023-02-13T06:02:51;102474.47;;;6.69;100.00
33506;BME280;19843;51.040;13.782;2023-02-13T06:05:20;102478.91;;;6.68;100.00
33506;BME280;19843;51.040;13.782;2023-02-13T06:07:47;102485.75;;;6.83;100.00
33506;BME280;19843;51.040;13.782;2023-02-13T06:10:15;102484.09;;;6.78;100.00
33506;BME280;19843;51.040;13.782;2023-02-13T06:12:42;102476.88;;;6.83;100.00
33506;BME280;19843;51.040;13.782;2023-02-13T06:15:10;102479.59;;;6.81;100.00
33506;BME280;19843;51.040;13.782;2023-02-13T06:17:37;102486.59;;;6.85;100.00
33506;BME280;19843;51.040;13.782;2023-02-13T06:20:06;102495.41;;;6.90;100.00
33506;BME280;19843;51.040;13.782;2023-02-13T06:22:35;102496.47;;;6.82;100.00
33506;BME280;19843;51.040;13.782;2023-02-13T06:25:03;102493.75;;;6.83;100.00
33506;BME280;19843;51.040;13.782;2023-02-13T06:27:31;102492.94;;;6.81;100.00
33506;BME280;19843;51.040;13.782;2023-02-13T06:29:58;102490.28;;;6.78;100.00
33506;BME280;19843;51.040;13.782;2023-02-13T06:32:25;102502.59;;;6.85;100.00
33506;BME280;19843;51.040;13.782;2023-02-13T06:34:53;102500.75;;;6.90;100.00
33506;BME280;19843;51.040;13.782;2023-02-13T06:37:20;102502.59;;;6.85;100.00
33506;BME280;19843;51.040;13.782;2023-02-13T06:39:49;102499.03;;;6.86;100.00
33506;BME280;19843;51.040;13.782;2023-02-13T06:42:16;102506.00;;;6.95;100.00
33506;BME280;19843;51.040;13.782;2023-02-13T06:44:44;102508.78;;;6.89;100.00
33506;BME280;19843;51.040;13.782;2023-02-13T06:47:12;102507.75;;;6.96;100.00
33506;BME280;19843;51.040;13.782;2023-02-13T06:49:39;102511.34;;;6.94;100.00
33506;BME280;19843;51.040;13.782;2023-02-13T06:52:06;102517.88;;;6.77;100.00
33506;BME280;19843;51.040;13.782;2023-02-13T06:54:34;102515.94;;;6.85;100.00
33506;BME280;19843;51.040;13.782;2023-02-13T06:57:14;102523.91;;;6.88;100.00
33506;BME280;19843;51.040;13.782;2023-02-13T06:59:42;102529.28;;;6.85;100.00
33506;BME280;19843;51.040;13.782;2023-02-13T07:02:09;102523.84;;;6.90;100.00
33506;BME280;19843;51.040;13.782;2023-02-13T07:04:37;102524.63;;;6.97;100.00
33506;BME280;19843;51.040;13.782;2023-02-13T07:07:05;102527.44;;;6.89;100.00
33506;BME280;19843;51.040;13.782;2023-02-13T07:09:32;102529.25;;;6.88;100.00
33506;BME280;19843;51.040;13.782;2023-02-13T07:12:01;102536.41;;;6.85;100.00
33506;BME280;19843;51.040;13.782;2023-02-13T07:14:30;102533.53;;;6.97;100.00
33506;BME280;19843;51.040;13.782;2023-02-13T07:16:58;102534.41;;;6.98;100.00
33506;BME280;19843;51.040;13.782;2023-02-13T07:19:25;102517.38;;;7.05;100.00
33506;BME280;19843;51.040;13.782;2023-02-13T07:21:53;102529.69;;;7.12;100.00
33506;BME280;19843;51.040;13.782;2023-02-13T07:24:20;102528.13;;;7.02;100.00
33506;BME280;19843;51.040;13.782;2023-02-13T07:26:47;102530.13;;;6.87;100.00
33506;BME280;19843;51.040;13.782;2023-02-13T07:29:15;102535.34;;;6.95;100.00
33506;BME280;19843;51.040;13.782;2023-02-13T07:31:44;102531.84;;;6.92;100.00
33506;BME280;19843;51.040;13.782;2023-02-13T07:34:11;102532.78;;;6.87;100.00
33506;BME280;19843;51.040;13.782;2023-02-13T07:36:38;102534.66;;;6.84;100.00
33506;BME280;19843;51.040;13.782;2023-02-13T07:39:06;102526.28;;;7.04;100.00
33506;BME280;19843;51.040;13.782;2023-02-13T07:41:33;102526.34;;;6.99;100.00
33506;BME280;19843;51.040;13.782;2023-02-13T07:44:01;102523.56;;;7.07;100.00
33506;BME280;19843;51.040;13.782;2023-02-13T07:46:28;102532.75;;;6.90;100.00
33506;BME280;19843;51.040;13.782;2023-02-13T07:48:57;102527.25;;;7.00;100.00
33506;BME280;19843;51.040;13.782;2023-02-13T07:51:25;102528.13;;;7.00;100.00
33506;BME280;19843;51.040;13.782;2023-02-13T07:53:54;102533.41;;;7.03;100.00
33506;BME280;19843;51.040;13.782;2023-02-13T07:56:23;102528.94;;;7.04;100.00
33506;BME280;19843;51.040;13.782;2023-02-13T07:58:50;102530.72;;;7.05;100.00
33506;BME280;19843;51.040;13.782;2023-02-13T08:01:17;102541.59;;;6.93;100.00
33506;BME280;19843;51.040;13.782;2023-02-13T08:03:47;102532.69;;;6.95;100.00
33506;BME280;19843;51.040;13.782;2023-02-13T08:06:17;102536.06;;;7.05;100.00
33506;BME280;19843;51.040;13.782;2023-02-13T08:08:45;102537.03;;;6.99;100.00
33506;BME280;19843;51.040;13.782;2023-02-13T08:11:22;102538.38;;;7.23;100.00
33506;BME280;19843;51.040;13.782;2023-02-13T08:14:08;102543.78;;;7.19;100.00
33506;BME280;19843;51.040;13.782;2023-02-13T08:16:35;102543.78;;;7.20;100.00
33506;BME280;19843;51.040;13.782;2023-02-13T08:19:03;102550.69;;;7.30;100.00
33506;BME280;19843;51.040;13.782;2023-02-13T08:21:31;102550.06;;;7.16;100.00
33506;BME280;19843;51.040;13.782;2023-02-13T08:24:00;102550.06;;;7.16;100.00
33506;BME280;19843;51.040;13.782;2023-02-13T08:26:29;102548.25;;;7.18;100.00
33506;BME280;19843;51.040;13.782;2023-02-13T08:28:57;102541.91;;;7.25;100.00
33506;BME280;19843;51.040;13.782;2023-02-13T08:31:25;102545.44;;;7.26;100.00
33506;BME280;19843;51.040;13.782;2023-02-13T08:33:54;102548.00;;;7.30;100.00
33506;BME280;19843;51.040;13.782;2023-02-13T08:36:22;102552.31;;;7.38;100.00
33506;BME280;19843;51.040;13.782;2023-02-13T08:38:51;102551.72;;;7.23;100.00
33506;BME280;19843;51.040;13.782;2023-02-13T08:41:18;102552.31;;;7.38;100.00
33506;BME280;19843;51.040;13.782;2023-02-13T08:43:47;102551.66;;;7.26;100.00
33506;BME280;19843;51.040;13.782;2023-02-13T08:46:15;102558.59;;;7.37;100.00
33506;BME280;19843;51.040;13.782;2023-02-13T08:48:43;102557.91;;;7.25;100.00
33506;BME280;19843;51.040;13.782;2023-02-13T08:51:12;102553.22;;;7.38;100.00
33506;BME280;19843;51.040;13.782;2023-02-13T08:53:40;102553.34;;;7.30;100.00
33506;BME280;19843;51.040;13.782;2023-02-13T08:56:09;102554.38;;;7.23;100.00
33506;BME280;19843;51.040;13.782;2023-02-13T08:58:37;102552.41;;;7.33;100.00
33506;BME280;19843;51.040;13.782;2023-02-13T09:01:05;102546.88;;;7.44;100.00
33506;BME280;19843;51.040;13.782;2023-02-13T09:03:33;102550.13;;;7.58;100.00
33506;BME280;19843;51.040;13.782;2023-02-13T09:06:01;102559.31;;;7.45;100.00
33506;BME280;19843;51.040;13.782;2023-02-13T09:08:29;102561.91;;;7.48;100.00
33506;BME280;19843;51.040;13.782;2023-02-13T09:10:57;102567.16;;;7.54;100.00
33506;BME280;19843;51.040;13.782;2023-02-13T09:13:28;102571.78;;;7.44;99.48
33506;BME280;19843;51.040;13.782;2023-02-13T09:15:58;102580.97;;;7.29;99.06
33506;BME280;19843;51.040;13.782;2023-02-13T09:18:26;102569.16;;;7.43;99.58
33506;BME280;19843;51.040;13.782;2023-02-13T09:20:58;102568.16;;;7.47;99.59
33506;BME280;19843;51.040;13.782;2023-02-13T09:23:29;102563.03;;;7.36;99.94
33506;BME280;19843;51.040;13.782;2023-02-13T09:25:58;102574.16;;;7.58;99.63
33506;BME280;19843;51.040;13.782;2023-02-13T09:28:28;102567.81;;;7.65;99.16
33506;BME280;19843;51.040;13.782;2023-02-13T09:30:56;102562.94;;;7.86;98.90
33506;BME280;19843;51.040;13.782;2023-02-13T09:33:24;102566.31;;;7.94;98.02
33506;BME280;19843;51.040;13.782;2023-02-13T09:35:51;102563.94;;;7.80;98.57
33506;BME280;19843;51.040;13.782;2023-02-13T09:38:19;102564.81;;;7.81;97.82
33506;BME280;19843;51.040;13.782;2023-02-13T09:40:49;102563.72;;;7.91;96.76
33506;BME280;19843;51.040;13.782;2023-02-13T09:43:28;102559.66;;;7.71;97.36
33506;BME280;19843;51.040;13.782;2023-02-13T09:45:58;102563.06;;;7.80;96.19
33506;BME280;19843;51.040;13.782;2023-02-13T09:48:29;102570.81;;;7.92;96.48
33506;BME280;19843;51.040;13.782;2023-02-13T09:50:57;102562.25;;;8.16;95.71
33506;BME280;19843;51.040;13.782;2023-02-13T09:53:27;102571.41;;;8.06;95.94
33506;BME280;19843;51.040;13.782;2023-02-13T09:56:04;102574.88;;;8.08;94.30
33506;BME280;19843;51.040;13.782;2023-02-13T09:58:42;102569.41;;;8.14;94.25
33506;BME280;19843;51.040;13.782;2023-02-13T10:01:18;102579.97;;;8.21;93.58
33506;BME280;19843;51.040;13.782;2023-02-13T10:03:51;102571.66;;;8.34;93.06
33506;BME280;19843;51.040;13.782;2023-02-13T10:06:27;102582.06;;;8.47;92.40
33506;BME280;19843;51.040;13.782;2023-02-13T10:09:05;102581.09;;;8.51;91.84
33506;BME280;19843;51.040;13.782;2023-02-13T10:11:48;102581.09;;;8.51;90.88
33506;BME280;19843;51.040;13.782;2023-02-13T10:14:25;102584.50;;;8.57;91.11
33506;BME280;19843;51.040;13.782;2023-02-13T10:17:01;102580.84;;;8.62;90.78
33506;BME280;19843;51.040;13.782;2023-02-13T10:19:35;102583.81;;;8.49;90.61
33506;BME280;19843;51.040;13.782;2023-02-13T10:22:06;102577.31;;;8.60;89.39
33506;BME280;19843;51.040;13.782;2023-02-13T10:24:39;102576.56;;;8.54;89.01
33506;BME280;19843;51.040;13.782;2023-02-13T10:27:17;102578.28;;;8.57;89.03
33506;BME280;19843;51.040;13.782;2023-02-13T10:29:51;102574.63;;;8.61;88.79
33506;BME280;19843;51.040;13.782;2023-02-13T10:32:40;102563.56;;;8.75;89.01
33506;BME280;19843;51.040;13.782;2023-02-13T10:35:19;102567.88;;;8.81;88.70
33506;BME280;19843;51.040;13.782;2023-02-13T10:37:48;102563.56;;;8.75;88.83
33506;BME280;19843;51.040;13.782;2023-02-13T10:40:18;102562.34;;;8.88;88.73
33506;BME280;19843;51.040;13.782;2023-02-13T10:42:50;102556.44;;;8.74;87.91
33506;BME280;19843;51.040;13.782;2023-02-13T10:45:32;102547.41;;;8.80;86.54
33506;BME280;19843;51.040;13.782;2023-02-13T10:48:13;102541.47;;;9.03;86.42
33506;BME280;19843;51.040;13.782;2023-02-13T10:50:50;102538.38;;;9.18;85.45
33506;BME280;19843;51.040;13.782;2023-02-13T10:53:33;102538.88;;;8.99;85.26
33506;BME280;19843;51.040;13.782;2023-02-13T10:56:18;102535.34;;;8.97;84.19
33506;BME280;19843;51.040;13.782;2023-02-13T10:58:57;102539.94;;;8.92;83.58
33506;BME280;19843;51.040;13.782;2023-02-13T11:01:31;102529.16;;;8.95;83.83
33506;BME280;19843;51.040;13.782;2023-02-13T11:04:04;102529.56;;;9.13;83.86
33506;BME280;19843;51.040;13.782;2023-02-13T11:06:34;102525.63;;;8.95;83.12
33506;BME280;19843;51.040;13.782;2023-02-13T11:09:04;102533.91;;;8.84;83.85
33506;BME280;19843;51.040;13.782;2023-02-13T11:11:34;102535.03;;;8.75;84.31
33506;BME280;19843;51.040;13.782;2023-02-13T11:14:08;102527.03;;;8.74;84.17
33506;BME280;19843;51.040;13.782;2023-02-13T11:16:46;102522.41;;;8.81;83.29
33506;BME280;19843;51.040;13.782;2023-02-13T11:19:19;102523.13;;;8.87;84.48
33506;BME280;19843;51.040;13.782;2023-02-13T11:21:53;102527.94;;;8.74;83.80
33506;BME280;19843;51.040;13.782;2023-02-13T11:24:22;102525.44;;;8.67;85.33
33506;BME280;19843;51.040;13.782;2023-02-13T11:26:52;102529.28;;;8.55;84.59
33506;BME280;19843;51.040;13.782;2023-02-13T11:29:24;102523.75;;;8.63;84.83
33506;BME280;19843;51.040;13.782;2023-02-13T11:32:17;102532.22;;;8.44;84.77
33506;BME280;19843;51.040;13.782;2023-02-13T11:34:46;102521.84;;;8.68;84.17
33506;BME280;19843;51.040;13.782;2023-02-13T11:37:25;102520.53;;;8.50;83.70
33506;BME280;19843;51.040;13.782;2023-02-13T11:39:55;102524.16;;;8.47;84.67
33506;BME280;19843;51.040;13.782;2023-02-13T11:42:28;102520.22;;;8.61;84.27
33506;BME280;19843;51.040;13.782;2023-02-13T11:45:02;102522.31;;;8.49;84.04
33506;BME280;19843;51.040;13.782;2023-02-13T11:47:35;102518.41;;;8.63;84.10
33506;BME280;19843;51.040;13.782;2023-02-13T11:50:04;102509.00;;;8.46;83.18
33506;BME280;19843;51.040;13.782;2023-02-13T11:52:34;102508.03;;;8.49;83.28
33506;BME280;19843;51.040;13.782;2023-02-13T11:55:04;102510.59;;;8.53;83.55
33506;BME280;19843;51.040;13.782;2023-02-13T11:57:34;102508.75;;;8.57;82.87
33506;BME280;19843;51.040;13.782;2023-02-13T12:00:26;102502.75;;;8.47;82.90
33506;BME280;19843;51.040;13.782;2023-02-13T12:02:57;102502.19;;;8.70;82.51
33506;BME280;19843;51.040;13.782;2023-02-13T12:05:26;102495.63;;;8.82;82.10
33506;BME280;19843;51.040;13.782;2023-02-13T12:07:56;102506.59;;;8.71;82.39
33506;BME280;19843;51.040;13.782;2023-02-13T12:10:27;102485.25;;;9.03;81.96
33506;BME280;19843;51.040;13.782;2023-02-13T12:12:57;102489.09;;;8.92;82.53
33506;BME280;19843;51.040;13.782;2023-02-13T12:15:27;102489.09;;;8.92;80.59
33506;BME280;19843;51.040;13.782;2023-02-13T12:18:03;102482.75;;;8.96;80.31
33506;BME280;19843;51.040;13.782;2023-02-13T12:20:39;102482.59;;;9.01;80.13
33506;BME280;19843;51.040;13.782;2023-02-13T12:23:17;102481.38;;;9.13;80.02
33506;BME280;19843;51.040;13.782;2023-02-13T12:26:09;102473.44;;;9.10;78.69
33506;BME280;19843;51.040;13.782;2023-02-13T12:28:50;102473.88;;;8.94;80.25
33506;BME280;19843;51.040;13.782;2023-02-13T12:31:31;102467.47;;;9.02;79.77
33506;BME280;19843;51.040;13.782;2023-02-13T12:34:25;102472.28;;;9.20;79.63
33506;BME280;19843;51.040;13.782;2023-02-13T12:37:06;102466.97;;;9.18;79.34
33506;BME280;19843;51.040;13.782;2023-02-13T12:39:39;102458.81;;;9.23;79.05
33506;BME280;19843;51.040;13.782;2023-02-13T12:42:19;102464.88;;;9.30;78.74
33506;BME280;19843;51.040;13.782;2023-02-13T12:45:07;102456.09;;;9.25;78.77
33506;BME280;19843;51.040;13.782;2023-02-13T12:47:44;102465.47;;;9.39;79.84
33506;BME280;19843;51.040;13.782;2023-02-13T12:50:34;102459.06;;;9.14;78.18
33506;BME280;19843;51.040;13.782;2023-02-13T12:53:18;102456.16;;;9.22;76.86
33506;BME280;19843;51.040;13.782;2023-02-13T12:56:00;102460.25;;;9.35;77.94
33506;BME280;19843;51.040;13.782;2023-02-13T12:58:44;102458.97;;;9.48;76.94
33506;BME280;19843;51.040;13.782;2023-02-13T13:01:19;102457.69;;;9.30;76.86
33506;BME280;19843;51.040;13.782;2023-02-13T13:04:02;102463.00;;;9.33;77.66
33506;BME280;19843;51.040;13.782;2023-02-13T13:06:51;102454.13;;;9.31;78.16
33506;BME280;19843;51.040;13.782;2023-02-13T13:09:51;102452.50;;;9.24;77.14
33506;BME280;19843;51.040;13.782;2023-02-13T13:12:29;102448.56;;;9.37;76.37